PWAK

Details ICAO PWAK (AWK)
Name Wake Island Airfield
Region USA (Wake Island)
Timezone Pacific/Wake (UTC+12.0)
Plans Departing 38
Arriving 42
Stats Elevation 14 ft / 4 m (AMSL)
Location 19.282065° 166.636443°
Runways 1
Magnetic Variation 5.330° E
Sunrise 2017-12-14 19:20:29 UTC / 2017-12-15 07:20:29 Local
Sunset 2017-12-15 06:19:05 UTC / 2017-12-15 18:19:05 Local
Advertisement - Login to hide

Runways

ID Width Length Bearing (true) Bearing (mag) Surface Threshold Offset Overrun Length
10 150 ft / 46 m 9,817 ft / 2,992 m 101.98° 96.65° Asphalt 0 ft / 0 m 190 ft / 58 m
28 150 ft / 46 m 9,817 ft / 2,992 m 281.99° 276.66° Asphalt 0 ft / 0 m 190 ft / 58 m

Map

Weather


0- 5 10 15 20 25 30 35+ Temperature / ° C

Clouds and Precipitation
Forecast for 2017-12-15 06:00 UTC. Updated an hour ago

Ground ~20,000 ft ~40,000 ft Winds

METAR

PWAK 150558Z AUTO 11007KT 9999 BKN015 BKN020 27/25 A2989 RMK AO2 SLP128 53008

TAF

TAF TAF PWAK 150600Z 1506/1612 09012KT 9999 SCT019 QNH2985INS TEMPO 1506/1512 09012G18KT 9000 -SHRA BKN019 TX29/1603Z TN25/1515Z

Frequencies

Tower 128.00 MHz OPS AAS
Warning: Do not use this data for real-world aviation or navigation. No guarantee of current accuracy is given.